createdAt,value
2017-12-11T00:00:52.945Z,2.58
2017-12-11T00:03:21.188Z,2.47
2017-12-11T00:05:48.656Z,2.80
2017-12-11T00:08:16.138Z,3.45
2017-12-11T00:10:43.614Z,3.17
2017-12-11T00:13:11.088Z,3.53
2017-12-11T00:15:38.551Z,4.15
2017-12-11T00:18:06.014Z,2.58
2017-12-11T00:20:33.491Z,3.75
2017-12-11T00:23:00.963Z,10.70
2017-12-11T00:25:28.424Z,3.05
2017-12-11T00:27:56.723Z,3.85
2017-12-11T00:30:24.194Z,4.53
2017-12-11T00:32:52.411Z,2.70
2017-12-11T00:35:19.910Z,4.43
2017-12-11T00:37:47.353Z,2.35
2017-12-11T00:40:14.827Z,2.83
2017-12-11T00:42:42.319Z,2.75
2017-12-11T00:45:09.781Z,3.22
2017-12-11T00:47:37.258Z,4.72
2017-12-11T00:50:04.709Z,3.40
2017-12-11T00:52:32.189Z,7.25
2017-12-11T00:54:59.649Z,1.70
2017-12-11T00:57:27.124Z,2.75
2017-12-11T00:59:54.586Z,2.65
2017-12-11T01:02:22.051Z,2.37
2017-12-11T01:04:49.528Z,2.05
2017-12-11T01:07:17.783Z,5.90
2017-12-11T01:09:45.242Z,1.92
2017-12-11T01:12:12.736Z,3.08
2017-12-11T01:14:40.215Z,3.95
2017-12-11T01:17:07.674Z,2.75
2017-12-11T01:19:35.167Z,2.90
2017-12-11T01:22:02.645Z,2.47
2017-12-11T01:24:30.136Z,4.10
2017-12-11T01:26:57.601Z,2.33
2017-12-11T01:29:25.055Z,2.10
2017-12-11T01:31:52.523Z,5.90
2017-12-11T01:34:19.987Z,3.55
2017-12-11T01:36:47.454Z,2.72
2017-12-11T01:39:14.901Z,2.85
2017-12-11T01:41:42.363Z,3.00
2017-12-11T01:44:09.830Z,3.72
2017-12-11T01:46:37.286Z,3.20
2017-12-11T01:49:04.799Z,2.97
2017-12-11T01:51:33.039Z,2.53
2017-12-11T01:54:00.536Z,3.37
2017-12-11T01:56:28.783Z,2.75
2017-12-11T01:58:56.240Z,2.95
2017-12-11T02:01:23.707Z,2.80
2017-12-11T02:03:51.177Z,4.25
2017-12-11T02:06:19.395Z,2.85
2017-12-11T02:08:46.869Z,3.25
2017-12-11T02:11:14.329Z,2.37
2017-12-11T02:13:41.810Z,2.90
2017-12-11T02:16:09.261Z,6.85
2017-12-11T02:18:36.727Z,6.03
2017-12-11T02:21:04.214Z,2.70
2017-12-11T02:23:32.467Z,5.20
2017-12-11T02:25:59.943Z,4.45
2017-12-11T02:28:28.244Z,4.32
2017-12-11T02:30:55.694Z,4.47
2017-12-11T02:33:23.170Z,3.80
2017-12-11T02:35:50.639Z,4.82
2017-12-11T02:38:18.085Z,7.35
2017-12-11T02:40:45.597Z,3.45
2017-12-11T02:43:13.043Z,6.40
2017-12-11T02:45:40.506Z,4.43
2017-12-11T02:48:08.004Z,3.50
2017-12-11T02:50:35.457Z,4.05
2017-12-11T02:53:02.947Z,3.70
2017-12-11T02:55:30.425Z,2.97
2017-12-11T02:57:57.871Z,4.82
2017-12-11T03:00:25.339Z,4.43
2017-12-11T03:02:52.831Z,4.10
2017-12-11T03:05:20.334Z,6.43
2017-12-11T03:07:47.800Z,3.95
2017-12-11T03:10:15.250Z,4.05
2017-12-11T03:12:42.711Z,4.65
2017-12-11T03:15:10.174Z,3.55
2017-12-11T03:17:37.639Z,2.85
2017-12-11T03:20:05.135Z,4.95
2017-12-11T03:22:32.600Z,3.95
2017-12-11T03:25:00.822Z,4.45
2017-12-11T03:27:28.294Z,4.30
2017-12-11T03:29:55.771Z,3.92
2017-12-11T03:32:23.271Z,3.70
2017-12-11T03:34:50.734Z,4.35
2017-12-11T03:37:18.213Z,3.33
2017-12-11T03:39:45.676Z,5.12
2017-12-11T03:42:13.163Z,3.05
2017-12-11T03:44:40.634Z,2.60
2017-12-11T03:47:08.112Z,2.95
2017-12-11T03:49:36.336Z,2.42
2017-12-11T03:52:03.803Z,2.85
2017-12-11T03:54:31.257Z,2.95
2017-12-11T03:56:58.746Z,2.53
2017-12-11T03:59:26.208Z,2.35
2017-12-11T04:01:54.441Z,2.45
2017-12-11T04:04:21.899Z,3.05
2017-12-11T04:06:49.354Z,2.62
2017-12-11T04:09:16.837Z,2.60
2017-12-11T04:11:44.310Z,4.43
2017-12-11T04:14:11.785Z,4.10
2017-12-11T04:16:40.031Z,3.75
2017-12-11T04:19:07.478Z,4.07
2017-12-11T04:21:34.941Z,6.97
2017-12-11T04:24:02.412Z,4.82
2017-12-11T04:26:29.864Z,2.60
2017-12-11T04:28:57.347Z,3.05
2017-12-11T04:31:25.561Z,3.03
2017-12-11T04:33:53.027Z,10.90
2017-12-11T04:36:20.498Z,7.37
2017-12-11T04:38:47.999Z,3.33
2017-12-11T04:41:16.231Z,2.95
2017-12-11T04:43:43.736Z,2.75
2017-12-11T04:46:11.224Z,5.70
2017-12-11T04:48:38.688Z,3.55
2017-12-11T04:51:06.133Z,2.58
2017-12-11T04:53:33.589Z,7.82
2017-12-11T04:56:01.039Z,3.37
2017-12-11T04:58:28.514Z,2.62
2017-12-11T05:00:55.952Z,3.75
2017-12-11T05:03:24.174Z,3.87
2017-12-11T05:05:51.622Z,2.58
2017-12-11T05:08:19.076Z,2.55
2017-12-11T05:10:46.528Z,5.05
2017-12-11T05:13:14.006Z,3.00
2017-12-11T05:15:41.467Z,4.32
2017-12-11T05:18:08.897Z,4.90
2017-12-11T05:20:36.357Z,4.32
2017-12-11T05:23:03.794Z,2.22
2017-12-11T05:25:31.264Z,4.40
2017-12-11T05:27:58.700Z,2.72
2017-12-11T05:30:26.925Z,2.90
2017-12-11T05:32:54.378Z,2.40
2017-12-11T05:35:21.826Z,2.45
2017-12-11T05:37:49.269Z,3.47
2017-12-11T05:40:16.718Z,3.40
2017-12-11T05:42:44.926Z,3.15
2017-12-11T05:45:12.395Z,2.85
2017-12-11T05:47:39.842Z,3.35
2017-12-11T05:50:07.286Z,3.87
2017-12-11T05:52:34.742Z,2.37
2017-12-11T05:55:02.181Z,2.75
2017-12-11T05:57:30.388Z,2.70
2017-12-11T05:59:57.848Z,3.00
2017-12-11T06:02:25.290Z,8.57
2017-12-11T06:04:52.775Z,5.30
2017-12-11T06:07:20.237Z,2.50
2017-12-11T06:09:47.673Z,3.55
2017-12-11T06:12:15.129Z,5.87
2017-12-11T06:14:42.584Z,2.15
2017-12-11T06:17:10.033Z,2.42
2017-12-11T06:19:37.475Z,4.00
2017-12-11T06:22:05.700Z,2.45
2017-12-11T06:24:33.139Z,2.87
2017-12-11T06:27:01.975Z,2.83
2017-12-11T06:29:29.480Z,4.57
2017-12-11T06:31:56.888Z,2.37
2017-12-11T06:34:24.339Z,2.45
2017-12-11T06:36:51.797Z,2.47
2017-12-11T06:39:19.246Z,4.95
2017-12-11T06:41:46.709Z,3.10
2017-12-11T06:44:14.157Z,2.28
2017-12-11T06:46:41.611Z,4.10
2017-12-11T06:49:09.064Z,3.70
2017-12-11T06:51:36.521Z,3.17
2017-12-11T06:54:03.970Z,3.87
2017-12-11T06:56:31.419Z,2.15
2017-12-11T06:58:58.862Z,4.72
2017-12-11T07:01:26.349Z,2.50
2017-12-11T07:03:53.798Z,2.78
2017-12-11T07:06:21.241Z,2.47
2017-12-11T07:08:48.697Z,2.30
2017-12-11T07:11:16.163Z,7.15
2017-12-11T07:13:43.689Z,2.22
2017-12-11T07:16:11.118Z,2.22
2017-12-11T07:18:38.562Z,3.35
2017-12-11T07:21:06.004Z,2.28
2017-12-11T07:23:33.458Z,3.53
2017-12-11T07:26:00.918Z,4.57
2017-12-11T07:28:28.374Z,5.07
2017-12-11T07:30:55.827Z,3.15
2017-12-11T07:33:23.269Z,4.32
2017-12-11T07:35:50.713Z,4.20
2017-12-11T07:38:18.987Z,3.08
2017-12-11T07:40:46.418Z,2.42
2017-12-11T07:43:13.862Z,2.10
2017-12-11T07:45:41.305Z,2.90
2017-12-11T07:48:08.762Z,2.75
2017-12-11T07:50:36.205Z,2.75
2017-12-11T07:53:03.658Z,2.78
2017-12-11T07:55:31.110Z,2.90
2017-12-11T07:57:59.309Z,4.68
2017-12-11T08:00:26.762Z,4.22
2017-12-11T08:02:54.216Z,4.35
2017-12-11T08:05:21.660Z,3.30
2017-12-11T08:07:49.114Z,3.72
2017-12-11T08:10:17.340Z,3.70
2017-12-11T08:12:44.777Z,3.78
2017-12-11T08:15:12.241Z,3.00
2017-12-11T08:17:39.688Z,6.45
2017-12-11T08:20:07.154Z,3.30
2017-12-11T08:22:34.603Z,7.15
2017-12-11T08:25:02.070Z,3.80
2017-12-11T08:27:29.562Z,5.60
2017-12-11T08:29:57.029Z,2.85
2017-12-11T08:32:24.483Z,4.05
2017-12-11T08:34:51.941Z,4.82
2017-12-11T08:37:19.381Z,4.03
2017-12-11T08:39:46.838Z,3.12
2017-12-11T08:42:14.285Z,3.33
2017-12-11T08:44:41.738Z,5.15
2017-12-11T08:47:09.182Z,3.50
2017-12-11T08:49:36.658Z,3.83
2017-12-11T08:52:04.098Z,16.00
2017-12-11T08:54:31.543Z,5.00
2017-12-11T08:56:59.010Z,5.93
2017-12-11T08:59:26.445Z,5.35
2017-12-11T09:01:54.686Z,4.95
2017-12-11T09:04:22.124Z,5.65
2017-12-11T09:06:49.581Z,3.72
2017-12-11T09:09:17.022Z,6.75
2017-12-11T09:11:44.481Z,3.33
2017-12-11T09:14:11.918Z,4.05
2017-12-11T09:16:40.133Z,6.65
2017-12-11T09:19:07.573Z,3.62
2017-12-11T09:21:35.031Z,6.62
2017-12-11T09:24:02.473Z,6.53
2017-12-11T09:26:29.928Z,6.28
2017-12-11T09:28:57.370Z,7.07
2017-12-11T09:31:25.589Z,4.12
2017-12-11T09:33:53.031Z,5.80
2017-12-11T09:36:20.482Z,7.70
2017-12-11T09:38:47.924Z,9.52
2017-12-11T09:41:16.160Z,5.82
2017-12-11T09:43:43.606Z,3.42
2017-12-11T09:46:11.067Z,5.97
2017-12-11T09:48:38.520Z,8.07
2017-12-11T09:51:05.966Z,5.53
2017-12-11T09:53:33.418Z,5.50
2017-12-11T09:56:00.870Z,6.70
2017-12-11T09:58:28.315Z,4.28
2017-12-11T10:00:55.761Z,4.97
2017-12-11T10:03:23.970Z,4.82
2017-12-11T10:05:51.412Z,3.78
2017-12-11T10:08:18.879Z,7.85
2017-12-11T10:10:46.375Z,2.72
2017-12-11T10:13:13.815Z,2.72
2017-12-11T10:15:41.266Z,6.00
2017-12-11T10:18:08.715Z,3.28
2017-12-11T10:20:36.189Z,2.75
2017-12-11T10:23:03.636Z,2.65
2017-12-11T10:25:31.090Z,2.97
2017-12-11T10:27:58.556Z,3.42
2017-12-11T10:30:25.985Z,3.40
2017-12-11T10:32:53.443Z,7.18
2017-12-11T10:35:21.645Z,5.68
2017-12-11T10:37:49.106Z,4.20
2017-12-11T10:40:16.553Z,3.58
2017-12-11T10:42:43.993Z,2.75
2017-12-11T10:45:11.441Z,3.70
2017-12-11T10:47:39.654Z,6.15
2017-12-11T10:50:07.110Z,2.58
2017-12-11T10:52:34.563Z,2.45
2017-12-11T10:55:02.022Z,3.33
2017-12-11T10:57:29.453Z,3.00
2017-12-11T10:59:57.678Z,4.82
2017-12-11T11:02:25.118Z,6.00
2017-12-11T11:04:52.564Z,3.42
2017-12-11T11:07:20.017Z,5.03
2017-12-11T11:09:47.471Z,3.70
2017-12-11T11:12:14.919Z,5.72
2017-12-11T11:14:43.126Z,4.90
2017-12-11T11:17:10.578Z,3.65
2017-12-11T11:19:38.027Z,3.17
2017-12-11T11:22:05.482Z,3.30
2017-12-11T11:24:32.928Z,4.07
2017-12-11T11:27:00.391Z,4.05
2017-12-11T11:29:27.863Z,4.72
2017-12-11T11:31:55.334Z,4.87
2017-12-11T11:34:22.773Z,5.53
2017-12-11T11:36:50.224Z,6.25
2017-12-11T11:39:17.706Z,4.18
2017-12-11T11:41:46.000Z,2.83
2017-12-11T11:44:13.449Z,2.83
2017-12-11T11:46:40.943Z,3.33
2017-12-11T11:49:08.387Z,3.67
2017-12-11T11:51:35.837Z,3.55
2017-12-11T11:54:03.326Z,3.65
2017-12-11T11:56:30.769Z,4.95
2017-12-11T11:58:58.217Z,5.87
2017-12-11T12:01:25.667Z,3.35
2017-12-11T12:03:53.124Z,3.62
2017-12-11T12:06:20.568Z,4.07
2017-12-11T12:08:48.014Z,4.75
2017-12-11T12:11:15.525Z,5.53
2017-12-11T12:13:42.987Z,3.78
2017-12-11T12:16:10.433Z,3.72
2017-12-11T12:18:37.872Z,6.25
2017-12-11T12:21:05.337Z,5.62
2017-12-11T12:23:32.788Z,4.50
2017-12-11T12:26:00.233Z,5.28
2017-12-11T12:28:27.685Z,4.97
2017-12-11T12:30:55.139Z,4.95
2017-12-11T12:33:22.595Z,4.25
2017-12-11T12:35:50.048Z,2.85
2017-12-11T12:38:17.536Z,6.22
2017-12-11T12:40:44.983Z,4.37
2017-12-11T12:43:12.435Z,3.70
2017-12-11T12:45:39.874Z,7.10
2017-12-11T12:48:07.330Z,3.85
2017-12-11T12:50:34.810Z,6.43
2017-12-11T12:53:02.261Z,8.00
2017-12-11T12:55:29.704Z,8.10
2017-12-11T12:57:57.169Z,5.53
2017-12-11T13:00:24.621Z,7.28
2017-12-11T13:02:52.077Z,4.55
2017-12-11T13:05:19.505Z,6.62
2017-12-11T13:07:47.735Z,6.95
2017-12-11T13:10:15.169Z,4.53
2017-12-11T13:12:42.618Z,4.32
2017-12-11T13:15:10.825Z,9.02
2017-12-11T13:17:38.270Z,5.57
2017-12-11T13:20:05.728Z,7.25
2017-12-11T13:22:33.174Z,4.07
2017-12-11T13:25:00.675Z,5.10
2017-12-11T13:27:28.119Z,5.65
2017-12-11T13:29:55.702Z,6.87
2017-12-11T13:32:23.134Z,6.32
2017-12-11T13:34:50.584Z,4.82
2017-12-11T13:37:18.710Z,5.95
2017-12-11T13:39:46.174Z,8.05
2017-12-11T13:42:14.342Z,6.78
2017-12-11T13:44:41.795Z,8.40
2017-12-11T13:47:09.233Z,9.93
2017-12-11T13:49:37.449Z,5.03
2017-12-11T13:52:05.676Z,4.90
2017-12-11T13:54:33.125Z,10.32
2017-12-11T13:57:00.567Z,4.87
2017-12-11T13:59:28.015Z,4.25
2017-12-11T14:01:55.449Z,3.40
2017-12-11T14:04:22.914Z,3.70
2017-12-11T14:06:52.024Z,6.00
2017-12-11T14:09:20.242Z,5.10
2017-12-11T14:11:47.683Z,4.05
2017-12-11T14:14:15.129Z,3.80
2017-12-11T14:16:42.590Z,4.60
2017-12-11T14:19:10.042Z,4.40
2017-12-11T14:21:37.489Z,2.97
2017-12-11T14:24:05.709Z,3.87
2017-12-11T14:26:33.166Z,3.40
2017-12-11T14:29:00.614Z,4.07
2017-12-11T14:31:28.062Z,3.67
2017-12-11T14:33:55.501Z,2.37
2017-12-11T14:36:22.967Z,2.03
2017-12-11T14:38:50.417Z,9.18
2017-12-11T14:41:18.630Z,2.62
2017-12-11T14:43:46.070Z,5.22
2017-12-11T14:46:13.519Z,2.72
2017-12-11T14:48:40.962Z,3.40
2017-12-11T14:51:09.182Z,4.65
2017-12-11T14:53:36.635Z,5.97
2017-12-11T14:56:04.082Z,3.55
2017-12-11T14:58:31.530Z,5.30
2017-12-11T15:00:58.995Z,4.53
2017-12-11T15:03:26.434Z,6.22
2017-12-11T15:05:53.874Z,3.97
2017-12-11T15:08:22.146Z,4.28
2017-12-11T15:10:50.356Z,3.40
2017-12-11T15:13:17.801Z,4.00
2017-12-11T15:15:45.253Z,6.15
2017-12-11T15:18:14.257Z,5.47
2017-12-11T15:20:41.710Z,3.90
2017-12-11T15:23:09.941Z,4.70
2017-12-11T15:25:37.381Z,8.77
2017-12-11T15:28:04.896Z,2.17
2017-12-11T15:30:33.108Z,4.90
2017-12-11T15:33:00.560Z,5.12
2017-12-11T15:35:27.997Z,3.72
2017-12-11T15:37:55.994Z,11.15
2017-12-11T15:40:23.443Z,11.68
2017-12-11T15:42:50.891Z,4.00
2017-12-11T15:45:19.289Z,10.93
2017-12-11T15:47:46.730Z,4.47
2017-12-11T15:50:14.178Z,5.05
2017-12-11T15:52:41.630Z,3.80
2017-12-11T15:55:11.334Z,3.55
2017-12-11T15:57:39.541Z,6.55
2017-12-11T16:00:09.795Z,4.57
2017-12-11T16:02:37.242Z,4.10
2017-12-11T16:05:04.687Z,2.90
2017-12-11T16:07:33.136Z,16.62
2017-12-11T16:10:01.405Z,5.53
2017-12-11T16:12:28.978Z,3.20
2017-12-11T16:14:57.181Z,4.15
2017-12-11T16:17:24.633Z,4.87
2017-12-11T16:19:52.080Z,3.17
2017-12-11T16:22:19.682Z,4.00
2017-12-11T16:24:47.138Z,6.18
2017-12-11T16:27:14.586Z,5.75
2017-12-11T16:29:42.034Z,4.73
2017-12-11T16:32:10.499Z,3.50
2017-12-11T16:34:37.955Z,4.80
2017-12-11T16:37:05.398Z,8.68
2017-12-11T16:39:33.618Z,6.18
2017-12-11T16:42:01.066Z,6.37
2017-12-11T16:44:29.462Z,6.25
2017-12-11T16:46:56.908Z,21.67
2017-12-11T16:49:24.362Z,7.07
2017-12-11T16:51:51.802Z,9.10
2017-12-11T16:54:19.251Z,7.75
2017-12-11T16:56:56.635Z,8.77
2017-12-11T16:59:24.862Z,8.93
2017-12-11T17:01:53.187Z,6.43
2017-12-11T17:04:21.394Z,6.07
2017-12-11T17:06:48.849Z,13.52
2017-12-11T17:09:16.318Z,13.00
2017-12-11T17:11:43.818Z,11.12
2017-12-11T17:14:11.263Z,6.80
2017-12-11T17:16:38.724Z,6.68
2017-12-11T17:19:06.698Z,6.95
2017-12-11T17:21:34.281Z,9.52
2017-12-11T17:24:02.578Z,11.02
2017-12-11T17:26:30.047Z,7.80
2017-12-11T17:28:57.520Z,6.30
2017-12-11T17:31:24.991Z,15.00
2017-12-11T17:33:52.486Z,10.45
2017-12-11T17:36:19.984Z,9.00
2017-12-11T17:38:47.539Z,8.57
2017-12-11T17:41:15.022Z,10.15
2017-12-11T17:43:42.473Z,12.85
2017-12-11T17:46:09.951Z,10.90
2017-12-11T17:48:37.440Z,9.13
2017-12-11T17:51:04.886Z,10.77
2017-12-11T17:53:32.776Z,10.57
2017-12-11T17:56:00.274Z,9.15
2017-12-11T17:58:39.643Z,9.23
2017-12-11T18:01:07.126Z,13.45
2017-12-11T18:03:35.342Z,7.05
2017-12-11T18:06:02.798Z,7.65
2017-12-11T18:08:30.271Z,9.18
2017-12-11T18:10:57.757Z,9.68
2017-12-11T18:13:25.293Z,7.78
2017-12-11T18:15:52.833Z,8.63
2017-12-11T18:18:20.358Z,6.65
2017-12-11T18:20:47.802Z,6.78
2017-12-11T18:23:15.284Z,12.37
2017-12-11T18:25:43.538Z,8.45
2017-12-11T18:28:11.030Z,8.75
2017-12-11T18:30:38.487Z,9.13
2017-12-11T18:33:05.980Z,6.45
2017-12-11T18:35:33.430Z,10.13
2017-12-11T18:38:00.914Z,7.70
2017-12-11T18:40:34.094Z,9.93
2017-12-11T18:43:01.557Z,10.27
2017-12-11T18:45:29.022Z,13.20
2017-12-11T18:47:57.384Z,8.02
2017-12-11T18:50:24.865Z,9.30
2017-12-11T18:52:52.766Z,10.30
2017-12-11T18:55:20.232Z,7.62
2017-12-11T18:57:48.459Z,8.35
2017-12-11T19:00:15.919Z,9.57
2017-12-11T19:02:43.379Z,9.40
2017-12-11T19:05:10.883Z,7.90
2017-12-11T19:07:39.235Z,8.50
2017-12-11T19:10:06.714Z,9.20
2017-12-11T19:12:35.024Z,7.82
2017-12-11T19:15:02.492Z,6.80
2017-12-11T19:17:29.965Z,9.05
2017-12-11T19:19:57.426Z,8.70
2017-12-11T19:22:25.049Z,9.38
2017-12-11T19:24:54.210Z,10.35
2017-12-11T19:27:21.713Z,6.90
2017-12-11T19:29:49.171Z,7.90
2017-12-11T19:32:16.672Z,9.30
2017-12-11T19:34:44.126Z,16.42
2017-12-11T19:37:11.596Z,11.07
2017-12-11T19:39:39.072Z,12.18
2017-12-11T19:42:06.542Z,7.20
2017-12-11T19:44:34.036Z,8.68
2017-12-11T19:47:01.496Z,9.82
2017-12-11T19:49:28.983Z,11.27
2017-12-11T19:51:56.453Z,8.98
2017-12-11T19:54:23.919Z,8.80
2017-12-11T19:56:51.462Z,11.55
2017-12-11T19:59:18.915Z,8.18
2017-12-11T20:01:46.395Z,9.50
2017-12-11T20:04:13.847Z,9.35
2017-12-11T20:06:41.306Z,6.60
2017-12-11T20:09:08.792Z,7.07
2017-12-11T20:11:36.296Z,9.18
2017-12-11T20:14:03.763Z,9.77
2017-12-11T20:16:31.289Z,13.65
2017-12-11T20:18:58.786Z,10.57
2017-12-11T20:21:26.227Z,8.43
2017-12-11T20:23:53.694Z,8.60
2017-12-11T20:26:21.159Z,8.02
2017-12-11T20:28:48.631Z,7.30
2017-12-11T20:31:16.133Z,11.30
2017-12-11T20:33:43.592Z,10.20
2017-12-11T20:36:11.098Z,10.43
2017-12-11T20:38:38.558Z,9.73
2017-12-11T20:41:06.031Z,7.43
2017-12-11T20:43:33.494Z,7.47
2017-12-11T20:46:00.948Z,9.77
2017-12-11T20:48:28.591Z,8.10
2017-12-11T20:50:56.034Z,6.87
2017-12-11T20:53:23.488Z,9.60
2017-12-11T20:55:50.928Z,6.90
2017-12-11T20:58:18.389Z,6.37
2017-12-11T21:00:45.856Z,5.68
2017-12-11T21:03:13.310Z,7.20
2017-12-11T21:05:40.734Z,6.93
2017-12-11T21:08:08.180Z,5.80
2017-12-11T21:10:36.398Z,6.00
2017-12-11T21:13:03.903Z,5.65
2017-12-11T21:15:31.367Z,6.10
2017-12-11T21:17:59.584Z,7.60
2017-12-11T21:20:27.037Z,4.75
2017-12-11T21:22:56.493Z,5.20
2017-12-11T21:25:24.167Z,4.55
2017-12-11T21:27:52.414Z,5.37
2017-12-11T21:30:19.905Z,6.62
2017-12-11T21:32:47.341Z,4.37
2017-12-11T21:35:14.786Z,4.50
2017-12-11T21:37:42.363Z,4.47
2017-12-11T21:40:09.816Z,3.50
2017-12-11T21:42:37.279Z,3.55
2017-12-11T21:45:07.184Z,4.30
2017-12-11T21:47:34.647Z,2.97
2017-12-11T21:50:02.123Z,3.35
2017-12-11T21:55:21.932Z,3.28
2017-12-11T21:57:49.422Z,2.40
2017-12-11T22:00:17.135Z,2.92
2017-12-11T22:02:44.670Z,2.30
2017-12-11T22:05:16.822Z,1.83
2017-12-11T22:07:44.534Z,1.90
2017-12-11T22:16:02.080Z,1.60
2017-12-11T22:18:29.521Z,1.80
2017-12-11T22:20:56.979Z,2.17
2017-12-11T22:23:24.546Z,1.80
2017-12-11T22:25:52.086Z,1.27
2017-12-11T22:28:21.241Z,1.40
2017-12-11T22:30:48.693Z,1.48
2017-12-11T22:33:16.152Z,1.80
2017-12-11T22:35:43.605Z,1.10
2017-12-11T22:38:11.070Z,2.35
2017-12-11T22:40:38.687Z,1.05
2017-12-11T22:43:06.129Z,1.85
2017-12-11T22:45:34.341Z,0.90
2017-12-11T22:48:03.169Z,0.90
2017-12-11T22:50:37.113Z,1.10
2017-12-11T22:53:06.027Z,0.88
2017-12-11T22:55:33.530Z,4.28
2017-12-11T22:58:13.108Z,1.62
2017-12-11T23:00:40.714Z,1.12
2017-12-11T23:03:09.710Z,1.20
2017-12-11T23:05:37.146Z,0.80
2017-12-11T23:08:08.067Z,1.02
2017-12-11T23:10:35.550Z,1.00
2017-12-11T23:13:03.846Z,1.00
2017-12-11T23:15:33.207Z,2.17
2017-12-11T23:18:02.634Z,0.80
2017-12-11T23:20:30.090Z,0.93
2017-12-11T23:23:05.353Z,1.25
2017-12-11T23:25:33.046Z,1.70
2017-12-11T23:28:01.374Z,0.75
2017-12-11T23:33:29.825Z,2.83
2017-12-11T23:35:57.861Z,1.00
2017-12-11T23:38:29.563Z,1.60
2017-12-11T23:41:04.755Z,0.80
2017-12-11T23:43:35.330Z,0.80
2017-12-11T23:46:03.566Z,0.70
2017-12-11T23:48:48.820Z,0.70
2017-12-11T23:51:16.302Z,1.95
2017-12-11T23:53:43.754Z,0.77
2017-12-11T23:56:11.891Z,0.90
2017-12-11T23:58:41.023Z,0.93
